createdAt,value
2023-03-05T00:01:59.169Z,13.00
2023-03-05T00:05:01.342Z,13.00
2023-03-05T00:08:03.770Z,13.00
2023-03-05T00:11:09.096Z,12.90
2023-03-05T00:14:12.163Z,12.90
2023-03-05T00:17:14.322Z,12.90
2023-03-05T00:20:16.605Z,12.90
2023-03-05T00:23:18.747Z,12.90
2023-03-05T00:26:24.024Z,12.90
2023-03-05T00:29:29.595Z,12.90
2023-03-05T00:32:33.854Z,12.80
2023-03-05T00:35:41.691Z,12.80
2023-03-05T00:38:43.849Z,12.80
2023-03-05T00:41:46.139Z,12.80
2023-03-05T00:44:48.281Z,12.70
2023-03-05T00:47:50.399Z,12.70
2023-03-05T00:50:53.644Z,12.70
2023-03-05T00:53:56.215Z,12.70
2023-03-05T00:56:58.299Z,12.70
2023-03-05T01:00:00.446Z,12.70
2023-03-05T01:03:02.729Z,12.70
2023-03-05T01:06:08.681Z,12.60
2023-03-05T01:09:11.260Z,12.60
2023-03-05T01:12:13.353Z,12.60
2023-03-05T01:15:16.026Z,12.60
2023-03-05T01:18:19.792Z,12.60
2023-03-05T01:21:22.239Z,12.60
2023-03-05T01:24:24.498Z,12.60
2023-03-05T01:27:26.750Z,12.60
2023-03-05T01:30:30.001Z,12.60
2023-03-05T01:33:32.179Z,12.60
2023-03-05T01:36:34.438Z,12.60
2023-03-05T01:39:36.701Z,12.70
2023-03-05T01:42:39.074Z,12.60
2023-03-05T01:46:19.422Z,12.60
2023-03-05T01:49:34.446Z,12.60
2023-03-05T01:52:39.792Z,12.60
2023-03-05T01:55:42.120Z,12.60
2023-03-05T01:58:45.345Z,12.60
2023-03-05T02:01:52.021Z,12.60
2023-03-05T02:05:03.899Z,12.60
2023-03-05T02:08:09.248Z,12.50
2023-03-05T02:11:11.391Z,12.50
2023-03-05T02:14:14.914Z,12.50
2023-03-05T02:17:17.666Z,12.50
2023-03-05T02:20:23.732Z,12.50
2023-03-05T02:23:28.773Z,12.50
2023-03-05T02:26:30.906Z,12.50
2023-03-05T02:29:34.296Z,12.40
2023-03-05T02:32:36.480Z,12.40
2023-03-05T02:35:38.699Z,12.40
2023-03-05T02:38:41.860Z,12.40
2023-03-05T02:41:44.065Z,12.30
2023-03-05T02:44:46.307Z,12.30
2023-03-05T02:47:48.647Z,12.30
2023-03-05T02:50:51.025Z,12.30
2023-03-05T02:53:53.434Z,12.30
2023-03-05T02:56:56.521Z,12.30
2023-03-05T02:59:58.812Z,12.30
2023-03-05T03:03:00.964Z,12.30
2023-03-05T03:06:03.508Z,12.30
2023-03-05T03:09:05.767Z,12.30
2023-03-05T03:12:08.195Z,12.30
2023-03-05T03:15:12.363Z,12.30
2023-03-05T03:18:14.501Z,12.40
2023-03-05T03:21:22.415Z,12.40
2023-03-05T03:24:24.700Z,12.40
2023-03-05T03:27:26.942Z,12.40
2023-03-05T03:30:29.090Z,12.40
2023-03-05T03:33:32.134Z,12.40
2023-03-05T03:36:35.240Z,12.40
2023-03-05T03:39:37.464Z,12.50
2023-03-05T03:42:39.606Z,12.40
2023-03-05T03:45:43.574Z,12.40
2023-03-05T03:48:45.726Z,12.40
2023-03-05T03:51:49.425Z,12.40
2023-03-05T03:54:53.225Z,12.30
2023-03-05T03:57:55.345Z,12.40
2023-03-05T04:00:57.575Z,12.40
2023-03-05T04:03:59.778Z,12.40
2023-03-05T04:07:01.937Z,12.50
2023-03-05T04:10:04.813Z,12.50
2023-03-05T04:13:07.288Z,12.50
2023-03-05T04:16:09.452Z,12.50
2023-03-05T04:19:11.779Z,12.50
2023-03-05T04:22:15.825Z,12.50
2023-03-05T04:25:18.006Z,12.40
2023-03-05T04:28:20.251Z,12.40
2023-03-05T04:31:22.444Z,12.40
2023-03-05T04:34:26.666Z,12.40
2023-03-05T04:37:28.882Z,12.40
2023-03-05T04:40:31.066Z,12.50
2023-03-05T04:43:33.430Z,12.60
2023-03-05T04:46:35.650Z,12.60
2023-03-05T04:49:37.886Z,12.70
2023-03-05T04:52:42.260Z,12.80
2023-03-05T04:55:44.659Z,12.80
2023-03-05T04:58:47.011Z,12.80
2023-03-05T05:01:49.180Z,12.80
2023-03-05T05:04:54.448Z,12.80
2023-03-05T05:07:57.604Z,12.80
2023-03-05T05:11:05.249Z,12.80
2023-03-05T05:14:07.712Z,12.80
2023-03-05T05:17:10.209Z,12.80
2023-03-05T05:20:14.542Z,12.70
2023-03-05T05:23:17.333Z,12.70
2023-03-05T05:26:19.591Z,12.60
2023-03-05T05:29:22.257Z,12.60
2023-03-05T05:32:25.011Z,12.60
2023-03-05T05:35:27.206Z,12.60
2023-03-05T05:38:29.345Z,12.60
2023-03-05T05:41:31.761Z,12.60
2023-03-05T05:44:35.098Z,12.50
2023-03-05T05:47:37.377Z,12.40
2023-03-05T05:50:39.774Z,12.30
2023-03-05T05:53:43.176Z,12.30
2023-03-05T05:56:45.289Z,12.20
2023-03-05T05:59:47.548Z,12.20
2023-03-05T06:02:49.718Z,12.20
2023-03-05T06:05:54.795Z,12.20
2023-03-05T06:08:57.112Z,12.20
2023-03-05T06:11:59.303Z,12.10
2023-03-05T06:15:01.444Z,12.00
2023-03-05T06:18:03.729Z,11.90
2023-03-05T06:21:09.655Z,11.80
2023-03-05T06:24:12.645Z,11.70
2023-03-05T06:27:14.787Z,11.70
2023-03-05T06:30:17.183Z,11.60
2023-03-05T06:33:19.304Z,11.60
2023-03-05T06:36:23.238Z,11.50
2023-03-05T06:39:25.376Z,11.50
2023-03-05T06:42:27.945Z,11.40
2023-03-05T06:45:30.077Z,11.40
2023-03-05T06:48:32.404Z,11.40
2023-03-05T06:51:37.773Z,11.40
2023-03-05T06:54:40.580Z,11.30
2023-03-05T06:57:42.758Z,11.20
2023-03-05T07:00:45.619Z,11.20
2023-03-05T07:03:52.591Z,11.20
2023-03-05T07:06:55.956Z,11.20
2023-03-05T07:09:58.069Z,11.10
2023-03-05T07:13:00.260Z,11.00
2023-03-05T07:16:10.011Z,11.00
2023-03-05T07:19:12.259Z,10.90
2023-03-05T07:22:14.472Z,10.80
2023-03-05T07:25:21.615Z,10.90
2023-03-05T07:28:24.082Z,10.80
2023-03-05T07:31:32.222Z,10.90
2023-03-05T07:34:34.533Z,10.90
2023-03-05T07:37:36.836Z,10.90
2023-03-05T07:40:39.979Z,10.90
2023-03-05T07:43:42.165Z,10.80
2023-03-05T07:46:44.972Z,10.70
2023-03-05T07:49:47.181Z,10.70
2023-03-05T07:52:49.307Z,10.70
2023-03-05T07:55:51.503Z,10.80
2023-03-05T07:58:53.905Z,10.70
2023-03-05T08:01:56.079Z,10.70
2023-03-05T08:04:58.264Z,10.60
2023-03-05T08:08:00.402Z,10.70
2023-03-05T08:11:07.446Z,10.70
2023-03-05T08:14:10.373Z,10.80
2023-03-05T08:17:12.575Z,10.80
2023-03-05T08:20:14.786Z,10.80
2023-03-05T08:23:16.911Z,10.80
2023-03-05T08:26:22.418Z,10.90
2023-03-05T08:29:25.241Z,10.90
2023-03-05T08:32:27.482Z,11.00
2023-03-05T08:35:29.756Z,11.00
2023-03-05T08:38:32.066Z,11.10
2023-03-05T08:41:34.311Z,11.10
2023-03-05T08:44:36.562Z,11.20
2023-03-05T08:47:38.690Z,11.30
2023-03-05T08:50:41.078Z,11.30
2023-03-05T08:53:44.209Z,11.40
2023-03-05T08:56:46.450Z,11.40
2023-03-05T08:59:48.760Z,11.40
2023-03-05T09:02:51.443Z,11.40
2023-03-05T09:05:53.713Z,11.40
2023-03-05T09:08:55.899Z,11.40
2023-03-05T09:12:02.404Z,11.40
2023-03-05T09:15:08.385Z,11.60
2023-03-05T09:18:10.739Z,11.70
2023-03-05T09:21:16.735Z,11.80
2023-03-05T09:24:18.858Z,11.90
2023-03-05T09:27:21.098Z,11.90
2023-03-05T09:30:23.351Z,11.90
2023-03-05T09:33:25.471Z,12.00
2023-03-05T09:36:30.143Z,12.10
2023-03-05T09:39:32.311Z,12.00
2023-03-05T09:42:37.635Z,12.20
2023-03-05T09:45:56.872Z,12.30
2023-03-05T09:49:06.809Z,12.30
2023-03-05T09:52:20.991Z,12.50
2023-03-05T09:55:44.117Z,12.60
2023-03-05T09:58:55.219Z,12.80
2023-03-05T10:02:12.165Z,12.90
2023-03-05T10:05:25.194Z,12.90
2023-03-05T10:08:45.888Z,13.00
2023-03-05T10:12:03.129Z,13.10
2023-03-05T10:15:17.244Z,13.30
2023-03-05T10:18:34.535Z,13.60
2023-03-05T10:22:18.073Z,13.90
2023-03-05T10:25:44.730Z,14.20
2023-03-05T10:29:23.422Z,14.50
2023-03-05T10:33:18.260Z,14.80
2023-03-05T10:36:34.980Z,15.00
2023-03-05T10:40:10.198Z,15.20
2023-03-05T10:43:25.017Z,15.30
2023-03-05T10:46:40.068Z,15.40
2023-03-05T10:49:51.326Z,15.60
2023-03-05T10:53:15.970Z,15.70
2023-03-05T10:56:21.497Z,15.80
2023-03-05T10:59:23.687Z,16.00
2023-03-05T11:02:25.932Z,16.10
2023-03-05T11:05:41.267Z,16.00
2023-03-05T11:08:43.509Z,16.00
2023-03-05T11:12:15.227Z,16.00
2023-03-05T11:15:17.307Z,16.10
2023-03-05T11:18:22.440Z,16.10
2023-03-05T11:21:28.059Z,16.20
2023-03-05T11:24:30.330Z,16.50
2023-03-05T11:27:39.749Z,16.90
2023-03-05T11:30:41.878Z,17.10
2023-03-05T11:34:03.555Z,17.20
2023-03-05T11:37:08.240Z,17.70
2023-03-05T11:40:19.824Z,18.30
2023-03-05T11:43:25.577Z,18.40
2023-03-05T11:46:28.571Z,18.60
2023-03-05T11:49:34.102Z,18.60
2023-03-05T11:52:59.419Z,18.40
2023-03-05T11:56:19.469Z,18.20
2023-03-05T11:59:29.258Z,18.00
2023-03-05T12:02:31.942Z,17.80
2023-03-05T12:05:37.710Z,17.60
2023-03-05T12:08:45.178Z,17.60
2023-03-05T12:11:52.360Z,17.50
2023-03-05T12:15:20.527Z,17.60
2023-03-05T12:18:36.113Z,17.80
2023-03-05T12:21:41.273Z,18.30
2023-03-05T12:24:43.452Z,18.80
2023-03-05T12:27:47.098Z,18.70
2023-03-05T12:30:50.127Z,19.00
2023-03-05T12:33:52.394Z,19.00
2023-03-05T12:36:54.553Z,18.90
2023-03-05T12:40:10.758Z,18.90
2023-03-05T12:43:33.849Z,18.90
2023-03-05T12:46:38.486Z,18.60
2023-03-05T12:49:44.418Z,18.60
2023-03-05T12:52:46.778Z,18.60
2023-03-05T12:55:51.992Z,18.70
2023-03-05T12:58:59.702Z,18.60
2023-03-05T13:02:16.627Z,18.50
2023-03-05T13:05:34.247Z,18.50
2023-03-05T13:08:37.866Z,18.30
2023-03-05T13:11:40.539Z,18.30
2023-03-05T13:14:54.559Z,18.20
2023-03-05T13:18:08.615Z,18.00
2023-03-05T13:21:19.068Z,18.00
2023-03-05T13:24:21.301Z,17.90
2023-03-05T13:27:31.882Z,17.70
2023-03-05T13:30:34.826Z,17.40
2023-03-05T13:33:38.147Z,17.40
2023-03-05T13:36:40.828Z,17.40
2023-03-05T13:39:58.989Z,17.40
2023-03-05T13:43:13.492Z,17.40
2023-03-05T13:46:27.774Z,17.40
2023-03-05T13:49:29.991Z,17.30
2023-03-05T13:52:35.353Z,17.20
2023-03-05T13:55:39.424Z,17.10
2023-03-05T13:58:54.974Z,16.90
2023-03-05T14:02:20.919Z,16.90
2023-03-05T14:05:23.477Z,16.80
2023-03-05T14:08:27.107Z,16.70
2023-03-05T14:11:29.411Z,16.60
2023-03-05T14:14:36.751Z,16.40
2023-03-05T14:17:40.446Z,16.30
2023-03-05T14:21:00.021Z,16.20
2023-03-05T14:24:13.396Z,16.20
2023-03-05T14:27:20.125Z,16.10
2023-03-05T14:30:24.766Z,16.20
2023-03-05T14:33:32.403Z,16.30
2023-03-05T14:36:35.066Z,16.30
2023-03-05T14:40:17.988Z,16.30
2023-03-05T14:43:20.778Z,16.40
2023-03-05T14:46:23.007Z,16.60
2023-03-05T14:49:25.236Z,16.70
2023-03-05T14:52:28.456Z,16.80
2023-03-05T14:55:32.453Z,16.80
2023-03-05T14:58:35.727Z,16.80
2023-03-05T15:01:37.885Z,16.70
2023-03-05T15:04:40.810Z,16.50
2023-03-05T15:07:43.341Z,16.40
2023-03-05T15:10:45.750Z,16.20
2023-03-05T15:13:50.124Z,16.10
2023-03-05T15:16:52.348Z,15.80
2023-03-05T15:19:54.472Z,15.60
2023-03-05T15:22:56.885Z,15.50
2023-03-05T15:26:00.821Z,15.30
2023-03-05T15:29:03.163Z,15.20
2023-03-05T15:32:05.745Z,15.20
2023-03-05T15:35:09.530Z,15.10
2023-03-05T15:38:11.823Z,15.20
2023-03-05T15:41:14.064Z,15.30
2023-03-05T15:44:16.291Z,15.30
2023-03-05T15:47:18.385Z,15.40
2023-03-05T15:50:22.182Z,15.60
2023-03-05T15:53:24.397Z,15.70
2023-03-05T15:56:26.552Z,15.80
2023-03-05T15:59:28.805Z,15.90
2023-03-05T16:02:30.922Z,15.90
2023-03-05T16:05:37.714Z,16.00
2023-03-05T16:08:42.286Z,16.10
2023-03-05T16:11:51.563Z,16.10
2023-03-05T16:14:53.827Z,16.20
2023-03-05T16:17:58.879Z,16.20
2023-03-05T16:21:02.351Z,16.30
2023-03-05T16:24:04.683Z,16.30
2023-03-05T16:27:06.918Z,16.30
2023-03-05T16:30:09.694Z,16.30
2023-03-05T16:33:12.090Z,16.40
2023-03-05T16:36:26.678Z,16.40
2023-03-05T16:39:28.821Z,16.40
2023-03-05T16:42:30.987Z,16.40
2023-03-05T16:45:33.178Z,16.60
2023-03-05T16:48:36.028Z,16.70
2023-03-05T16:51:38.227Z,16.80
2023-03-05T16:54:41.710Z,16.60
2023-03-05T16:57:43.940Z,16.60
2023-03-05T17:00:46.333Z,16.50
2023-03-05T17:03:49.197Z,16.40
2023-03-05T17:06:51.922Z,16.30
2023-03-05T17:09:54.290Z,16.30
2023-03-05T17:12:57.017Z,16.30
2023-03-05T17:15:59.274Z,16.40
2023-03-05T17:19:01.663Z,16.40
2023-03-05T17:22:04.574Z,16.30
2023-03-05T17:25:07.470Z,16.30
2023-03-05T17:28:10.251Z,16.30
2023-03-05T17:31:13.347Z,16.20
2023-03-05T17:34:16.695Z,16.20
2023-03-05T17:37:19.368Z,16.10
2023-03-05T17:40:22.981Z,16.10
2023-03-05T17:43:25.268Z,16.00
2023-03-05T17:46:27.440Z,16.00
2023-03-05T17:49:29.810Z,15.90
2023-03-05T17:52:32.370Z,15.90
2023-03-05T17:55:34.609Z,15.90
2023-03-05T17:58:37.155Z,15.80
2023-03-05T18:01:39.281Z,15.70
2023-03-05T18:04:41.651Z,15.60
2023-03-05T18:07:43.948Z,15.50
2023-03-05T18:10:46.260Z,15.40
2023-03-05T18:13:48.675Z,15.30
2023-03-05T18:16:50.935Z,15.10
2023-03-05T18:19:53.824Z,15.00
2023-03-05T18:22:57.844Z,14.90
2023-03-05T18:25:59.963Z,14.80
2023-03-05T18:29:03.668Z,14.70
2023-03-05T18:32:06.214Z,14.60
2023-03-05T18:35:10.186Z,14.50
2023-03-05T18:38:12.556Z,14.40
2023-03-05T18:41:27.612Z,14.30
2023-03-05T18:44:30.392Z,14.30
2023-03-05T18:47:34.042Z,14.20
2023-03-05T18:50:36.334Z,14.10
2023-03-05T18:53:39.292Z,14.00
2023-03-05T18:56:41.494Z,13.90
2023-03-05T18:59:43.645Z,13.90
2023-03-05T19:02:45.920Z,13.80
2023-03-05T19:05:50.206Z,13.70
2023-03-05T19:08:57.473Z,13.70
2023-03-05T19:11:59.619Z,13.60
2023-03-05T19:15:03.394Z,13.60
2023-03-05T19:18:05.775Z,13.50
2023-03-05T19:21:08.472Z,13.50
2023-03-05T19:24:11.574Z,13.40
2023-03-05T19:27:14.185Z,13.40
2023-03-05T19:30:16.781Z,13.40
2023-03-05T19:33:18.950Z,13.40
2023-03-05T19:36:21.377Z,13.40
2023-03-05T19:39:23.741Z,13.40
2023-03-05T19:42:26.085Z,13.40
2023-03-05T19:45:31.883Z,13.30
2023-03-05T19:48:35.989Z,13.30
2023-03-05T19:51:40.044Z,13.30
2023-03-05T19:54:42.097Z,13.20
2023-03-05T19:57:44.260Z,13.20
2023-03-05T20:00:46.417Z,13.10
2023-03-05T20:03:51.993Z,13.10
2023-03-05T20:06:54.257Z,13.00
2023-03-05T20:09:57.739Z,13.00
2023-03-05T20:12:59.876Z,13.00
2023-03-05T20:16:02.463Z,13.00
2023-03-05T20:19:06.766Z,12.90
2023-03-05T20:22:08.922Z,12.90
2023-03-05T20:25:16.753Z,12.90
2023-03-05T20:28:25.898Z,12.90
2023-03-05T20:31:28.347Z,12.90
2023-03-05T20:34:31.481Z,12.80
2023-03-05T20:37:40.336Z,12.90
2023-03-05T20:40:42.447Z,12.90
2023-03-05T20:43:47.828Z,12.80
2023-03-05T20:46:59.834Z,12.80
2023-03-05T20:50:02.141Z,12.90
2023-03-05T20:53:04.508Z,12.90
2023-03-05T20:56:07.192Z,12.90
2023-03-05T20:59:10.777Z,12.90
2023-03-05T21:02:13.384Z,12.90
2023-03-05T21:05:15.685Z,12.90
2023-03-05T21:08:17.827Z,12.80
2023-03-05T21:11:20.516Z,12.80
2023-03-05T21:14:22.671Z,12.80
2023-03-05T21:17:24.841Z,12.80
2023-03-05T21:20:30.081Z,12.80
2023-03-05T21:23:32.477Z,12.80
2023-03-05T21:26:35.343Z,12.80
2023-03-05T21:29:37.628Z,12.80
2023-03-05T21:32:39.846Z,12.80
2023-03-05T21:35:42.709Z,12.80
2023-03-05T21:38:46.702Z,12.80
2023-03-05T21:41:48.927Z,12.80
2023-03-05T21:44:51.068Z,12.90
2023-03-05T21:47:53.711Z,12.90
2023-03-05T21:50:57.355Z,12.90
2023-03-05T21:53:59.496Z,12.80
2023-03-05T21:57:01.655Z,12.80
2023-03-05T22:00:10.205Z,12.80
2023-03-05T22:03:12.382Z,12.80
2023-03-05T22:06:16.382Z,12.80
2023-03-05T22:09:18.643Z,12.80
2023-03-05T22:12:31.574Z,12.80
2023-03-05T22:15:34.193Z,12.80
2023-03-05T22:18:36.751Z,12.80
2023-03-05T22:21:38.933Z,12.70
2023-03-05T22:24:41.087Z,12.70
2023-03-05T22:27:45.754Z,12.70
2023-03-05T22:30:47.979Z,12.60
2023-03-05T22:33:51.114Z,12.60
2023-03-05T22:36:53.235Z,12.60
2023-03-05T22:39:56.790Z,12.60
2023-03-05T22:42:59.906Z,12.60
2023-03-05T22:46:13.023Z,12.60
2023-03-05T22:49:15.262Z,12.60
2023-03-05T22:52:17.458Z,12.70
2023-03-05T22:55:19.748Z,12.70
2023-03-05T22:58:21.928Z,12.70
2023-03-05T23:01:25.917Z,12.70
2023-03-05T23:04:48.903Z,12.70
2023-03-05T23:07:51.206Z,12.70
2023-03-05T23:10:53.750Z,12.70
2023-03-05T23:13:55.963Z,12.70
2023-03-05T23:16:58.129Z,12.70
2023-03-05T23:20:00.331Z,12.70
2023-03-05T23:23:03.440Z,12.70
2023-03-05T23:26:05.792Z,12.60
2023-03-05T23:29:07.878Z,12.60
2023-03-05T23:32:10.003Z,12.60
2023-03-05T23:35:17.434Z,12.60
2023-03-05T23:38:20.128Z,12.60
2023-03-05T23:41:22.261Z,12.60
2023-03-05T23:44:24.410Z,12.60
2023-03-05T23:47:26.580Z,12.60
2023-03-05T23:50:33.929Z,12.60
2023-03-05T23:53:36.575Z,12.50
2023-03-05T23:56:39.694Z,12.50
2023-03-05T23:59:42.069Z,12.50
